createdAt,value
2019-02-08T00:01:08.821Z,4.90
2019-02-08T00:03:38.073Z,4.50
2019-02-08T00:06:07.362Z,4.67
2019-02-08T00:08:36.626Z,4.45
2019-02-08T00:11:05.912Z,4.53
2019-02-08T00:13:35.273Z,4.55
2019-02-08T00:16:04.572Z,4.53
2019-02-08T00:18:33.988Z,4.83
2019-02-08T00:21:03.666Z,4.80
2019-02-08T00:23:32.919Z,3.98
2019-02-08T00:26:03.266Z,4.03
2019-02-08T00:28:32.610Z,4.47
2019-02-08T00:31:02.984Z,4.35
2019-02-08T00:33:32.218Z,3.98
2019-02-08T00:36:01.910Z,3.90
2019-02-08T00:38:31.159Z,3.85
2019-02-08T00:41:00.438Z,3.77
2019-02-08T00:43:29.694Z,4.12
2019-02-08T00:45:59.076Z,4.22
2019-02-08T00:48:28.331Z,3.95
2019-02-08T00:50:57.605Z,4.15
2019-02-08T00:53:33.246Z,3.70
2019-02-08T00:55:57.753Z,3.42
2019-02-08T00:58:27.022Z,3.95
2019-02-08T01:00:56.307Z,3.70
2019-02-08T01:03:25.564Z,3.40
2019-02-08T01:05:54.849Z,3.30
2019-02-08T01:08:24.499Z,3.67
2019-02-08T01:10:53.818Z,3.87
2019-02-08T01:13:23.090Z,3.60
2019-02-08T01:15:52.373Z,3.45
2019-02-08T01:18:21.635Z,3.17
2019-02-08T01:20:50.903Z,3.87
2019-02-08T01:23:20.150Z,2.95
2019-02-08T01:25:49.427Z,3.42
2019-02-08T01:28:18.682Z,2.80
2019-02-08T01:30:47.960Z,3.42
2019-02-08T01:33:17.210Z,2.80
2019-02-08T01:35:46.490Z,2.92
2019-02-08T01:38:15.738Z,2.65
2019-02-08T01:40:45.137Z,3.02
2019-02-08T01:43:14.390Z,2.60
2019-02-08T01:45:43.667Z,2.70
2019-02-08T01:48:12.914Z,2.85
2019-02-08T01:50:42.266Z,2.75
2019-02-08T01:53:11.514Z,2.77
2019-02-08T01:55:40.792Z,2.65
2019-02-08T01:58:10.041Z,2.95
2019-02-08T02:00:41.455Z,2.90
2019-02-08T02:03:10.630Z,2.67
2019-02-08T02:05:39.840Z,2.70
2019-02-08T02:08:09.092Z,2.45
2019-02-08T02:10:40.434Z,3.00
2019-02-08T02:13:10.022Z,2.92
2019-02-08T02:15:39.276Z,2.35
2019-02-08T02:18:08.985Z,2.65
2019-02-08T02:20:40.286Z,2.67
2019-02-08T02:23:10.906Z,2.60
2019-02-08T02:25:41.166Z,2.42
2019-02-08T02:28:10.438Z,2.50
2019-02-08T02:30:39.862Z,2.25
2019-02-08T02:33:11.169Z,2.52
2019-02-08T02:35:40.418Z,2.20
2019-02-08T02:38:09.620Z,2.33
2019-02-08T02:40:38.958Z,2.35
2019-02-08T02:43:08.158Z,2.12
2019-02-08T02:45:39.042Z,2.40
2019-02-08T02:48:09.858Z,2.47
2019-02-08T02:50:39.130Z,2.30
2019-02-08T02:53:08.409Z,2.10
2019-02-08T02:55:37.667Z,2.30
2019-02-08T02:58:06.936Z,2.30
2019-02-08T03:00:38.880Z,2.25
2019-02-08T03:03:08.150Z,2.20
2019-02-08T03:05:37.331Z,2.35
2019-02-08T03:08:08.059Z,2.20
2019-02-08T03:10:38.286Z,2.10
2019-02-08T03:13:07.582Z,1.98
2019-02-08T03:15:36.827Z,2.37
2019-02-08T03:18:06.183Z,1.95
2019-02-08T03:20:35.435Z,1.95
2019-02-08T03:23:05.156Z,2.10
2019-02-08T03:25:34.410Z,1.72
2019-02-08T03:28:03.695Z,1.80
2019-02-08T03:30:37.544Z,2.00
2019-02-08T03:33:06.900Z,1.80
2019-02-08T03:35:36.205Z,1.90
2019-02-08T03:38:05.478Z,1.90
2019-02-08T03:40:34.733Z,2.05
2019-02-08T03:43:04.103Z,1.87
2019-02-08T03:45:37.957Z,1.90
2019-02-08T03:48:07.311Z,1.62
2019-02-08T03:50:36.558Z,1.80
2019-02-08T03:53:06.479Z,1.80
2019-02-08T03:55:35.734Z,1.60
2019-02-08T03:58:05.279Z,1.62
2019-02-08T04:00:44.765Z,1.70
2019-02-08T04:03:15.121Z,1.62
2019-02-08T04:05:44.369Z,1.70
2019-02-08T04:08:13.662Z,1.77
2019-02-08T04:10:42.977Z,1.62
2019-02-08T04:13:12.246Z,1.75
2019-02-08T04:15:41.494Z,1.60
2019-02-08T04:18:10.711Z,1.60
2019-02-08T04:20:39.972Z,1.80
2019-02-08T04:23:09.232Z,1.60
2019-02-08T04:25:38.486Z,1.50
2019-02-08T04:28:07.761Z,1.57
2019-02-08T04:30:37.016Z,1.42
2019-02-08T04:33:06.303Z,1.30
2019-02-08T04:35:35.549Z,1.60
2019-02-08T04:38:04.901Z,1.52
2019-02-08T04:40:34.150Z,1.35
2019-02-08T04:43:03.418Z,1.60
2019-02-08T04:45:32.673Z,1.50
2019-02-08T04:48:01.950Z,1.65
2019-02-08T04:50:31.201Z,1.40
2019-02-08T04:53:00.402Z,1.40
2019-02-08T04:55:29.725Z,1.42
2019-02-08T04:57:58.927Z,1.30
2019-02-08T05:00:36.295Z,1.52
2019-02-08T05:03:06.101Z,1.35
2019-02-08T05:05:35.385Z,1.27
2019-02-08T05:08:05.002Z,1.30
2019-02-08T05:10:34.520Z,1.57
2019-02-08T05:13:04.670Z,1.35
2019-02-08T05:15:33.923Z,1.50
2019-02-08T05:18:03.199Z,1.20
2019-02-08T05:20:32.728Z,1.35
2019-02-08T05:23:01.910Z,1.37
2019-02-08T05:25:31.210Z,1.30
2019-02-08T05:28:00.439Z,1.30
2019-02-08T05:30:34.562Z,1.30
2019-02-08T05:33:04.131Z,1.30
2019-02-08T05:35:33.367Z,1.20
2019-02-08T05:38:02.659Z,1.32
2019-02-08T05:40:31.936Z,1.57
2019-02-08T05:43:01.240Z,1.20
2019-02-08T05:45:30.470Z,1.20
2019-02-08T05:47:59.718Z,1.20
2019-02-08T05:50:29.469Z,1.40
2019-02-08T05:52:58.715Z,1.10
2019-02-08T05:55:30.231Z,1.20
2019-02-08T05:57:59.479Z,1.10
2019-02-08T06:00:38.245Z,1.25
2019-02-08T06:03:07.554Z,1.20
2019-02-08T06:05:37.179Z,1.50
2019-02-08T06:08:07.377Z,1.30
2019-02-08T06:10:36.648Z,1.30
2019-02-08T06:13:06.938Z,1.20
2019-02-08T06:15:36.288Z,1.45
2019-02-08T06:18:06.870Z,1.50
2019-02-08T06:20:36.142Z,1.25
2019-02-08T06:23:06.255Z,1.17
2019-02-08T06:25:36.589Z,1.10
2019-02-08T06:28:06.115Z,1.30
2019-02-08T06:30:35.386Z,1.40
2019-02-08T06:33:05.274Z,1.17
2019-02-08T06:35:34.621Z,1.87
2019-02-08T06:38:04.017Z,1.65
2019-02-08T06:40:38.565Z,1.80
2019-02-08T06:43:07.843Z,1.57
2019-02-08T06:45:38.204Z,1.62
2019-02-08T06:48:09.094Z,1.60
2019-02-08T06:50:38.374Z,1.80
2019-02-08T06:53:08.689Z,1.60
2019-02-08T06:55:37.887Z,1.60
2019-02-08T06:58:18.626Z,1.25
2019-02-08T07:00:53.764Z,1.47
2019-02-08T07:03:24.666Z,1.62
2019-02-08T07:05:55.680Z,1.47
2019-02-08T07:08:26.570Z,1.20
2019-02-08T07:11:12.432Z,1.40
2019-02-08T07:16:16.152Z,1.50
2019-02-08T07:18:54.075Z,1.50
2019-02-08T07:21:30.707Z,1.17
2019-02-08T07:24:07.466Z,1.00
2019-02-08T07:26:54.622Z,1.15
2019-02-08T07:29:25.547Z,1.57
2019-02-08T07:32:08.381Z,1.22
2019-02-08T07:34:55.710Z,1.40
2019-02-08T07:37:32.528Z,1.27
2019-02-08T07:40:04.779Z,1.40
2019-02-08T07:42:35.662Z,1.40
2019-02-08T07:45:18.122Z,1.40
2019-02-08T07:47:58.194Z,1.20
2019-02-08T07:50:35.286Z,1.10
2019-02-08T07:53:09.261Z,1.10
2019-02-08T07:55:56.618Z,1.27
2019-02-08T07:58:27.518Z,1.22
2019-02-08T08:00:58.438Z,1.07
2019-02-08T08:03:41.287Z,1.20
2019-02-08T08:06:12.199Z,1.20
2019-02-08T08:08:59.484Z,1.00
2019-02-08T08:11:42.610Z,1.37
2019-02-08T08:14:29.673Z,1.30
2019-02-08T08:17:18.610Z,1.20
2019-02-08T08:20:04.526Z,1.10
2019-02-08T08:25:15.559Z,1.25
2019-02-08T08:27:52.511Z,1.42
2019-02-08T08:30:26.031Z,1.35
2019-02-08T08:33:09.509Z,1.10
2019-02-08T08:36:07.188Z,1.30
2019-02-08T08:38:42.390Z,1.22
2019-02-08T08:41:23.422Z,1.17
2019-02-08T08:44:18.818Z,1.37
2019-02-08T08:47:13.950Z,1.70
2019-02-08T08:50:04.519Z,1.40
2019-02-08T08:52:37.090Z,1.27
2019-02-08T08:55:15.263Z,1.45
2019-02-08T08:58:23.695Z,1.10
2019-02-08T09:00:58.780Z,1.27
2019-02-08T09:03:47.739Z,1.30
2019-02-08T09:06:38.454Z,1.52
2019-02-08T09:09:10.890Z,1.50
2019-02-08T09:12:13.370Z,1.22
2019-02-08T09:15:02.212Z,1.30
2019-02-08T09:17:35.113Z,1.40
2019-02-08T09:20:27.546Z,1.30
2019-02-08T09:23:12.113Z,1.20
2019-02-08T09:26:08.818Z,1.90
2019-02-08T09:29:07.174Z,1.75
2019-02-08T09:32:13.097Z,1.72
2019-02-08T09:34:45.651Z,1.60
2019-02-08T09:37:21.388Z,1.42
2019-02-08T09:40:05.307Z,1.40
2019-02-08T09:43:09.666Z,1.50
2019-02-08T09:45:50.745Z,1.60
2019-02-08T09:48:36.309Z,1.52
2019-02-08T09:51:23.775Z,1.50
2019-02-08T09:54:24.854Z,1.47
2019-02-08T09:57:14.362Z,1.20
2019-02-08T09:59:46.950Z,1.30
2019-02-08T10:02:37.891Z,1.35
2019-02-08T10:05:31.022Z,1.55
2019-02-08T10:08:09.542Z,1.20
2019-02-08T10:11:15.275Z,1.22
2019-02-08T10:13:50.826Z,1.05
2019-02-08T10:16:56.651Z,1.32
2019-02-08T10:19:41.022Z,1.30
2019-02-08T10:22:42.577Z,1.70
2019-02-08T10:25:23.786Z,1.30
2019-02-08T10:28:11.374Z,1.30
2019-02-08T10:30:56.033Z,1.35
2019-02-08T10:33:45.053Z,1.37
2019-02-08T10:36:32.662Z,1.07
2019-02-08T10:39:07.978Z,1.10
2019-02-08T10:41:49.119Z,1.15
2019-02-08T10:44:30.496Z,0.98
2019-02-08T10:47:19.900Z,1.20
2019-02-08T10:50:08.924Z,1.17
2019-02-08T10:53:07.122Z,1.10
2019-02-08T10:55:56.401Z,0.90
2019-02-08T10:58:47.118Z,1.05
2019-02-08T11:01:42.285Z,0.90
2019-02-08T11:04:31.373Z,1.22
2019-02-08T11:07:27.907Z,1.10
2019-02-08T11:10:16.956Z,1.10
2019-02-08T11:13:10.730Z,1.00
2019-02-08T11:16:01.178Z,1.12
2019-02-08T11:19:05.678Z,0.90
2019-02-08T11:21:36.021Z,1.17
2019-02-08T11:24:06.358Z,1.07
2019-02-08T11:26:35.613Z,0.95
2019-02-08T11:29:04.881Z,1.00
2019-02-08T11:31:34.063Z,0.85
2019-02-08T11:34:04.838Z,0.90
2019-02-08T11:36:34.082Z,1.00
2019-02-08T11:39:03.470Z,0.90
2019-02-08T11:41:52.166Z,0.95
2019-02-08T11:44:21.451Z,1.10
2019-02-08T11:46:50.706Z,0.90
2019-02-08T11:49:19.974Z,0.80
2019-02-08T11:51:49.287Z,0.80
2019-02-08T11:54:18.738Z,0.93
2019-02-08T11:56:48.027Z,0.90
2019-02-08T11:59:17.265Z,0.90
2019-02-08T12:01:46.825Z,0.90
2019-02-08T12:04:16.148Z,0.82
2019-02-08T12:06:45.428Z,0.98
2019-02-08T12:09:14.755Z,1.07
2019-02-08T12:11:44.328Z,0.95
2019-02-08T12:14:13.681Z,1.00
2019-02-08T12:16:42.890Z,1.00
2019-02-08T12:19:13.110Z,0.90
2019-02-08T12:21:42.382Z,0.95
2019-02-08T12:24:11.800Z,0.93
2019-02-08T12:26:41.073Z,1.30
2019-02-08T12:29:10.262Z,1.32
2019-02-08T12:31:39.552Z,1.32
2019-02-08T12:34:08.802Z,1.50
2019-02-08T12:36:38.148Z,0.90
2019-02-08T12:39:09.077Z,1.30
2019-02-08T12:41:38.358Z,1.00
2019-02-08T12:44:07.619Z,1.47
2019-02-08T12:46:36.894Z,0.98
2019-02-08T12:49:06.152Z,1.12
2019-02-08T12:51:35.430Z,1.20
2019-02-08T12:54:04.682Z,1.22
2019-02-08T12:56:33.958Z,1.22
2019-02-08T12:59:03.210Z,0.90
2019-02-08T13:01:37.701Z,1.10
2019-02-08T13:04:04.550Z,1.12
2019-02-08T13:06:33.752Z,1.00
2019-02-08T13:09:03.474Z,1.27
2019-02-08T13:11:33.826Z,0.90
2019-02-08T13:14:03.082Z,1.20
2019-02-08T13:16:32.364Z,0.90
2019-02-08T13:19:01.612Z,0.98
2019-02-08T13:21:31.954Z,0.70
2019-02-08T13:24:01.210Z,0.98
2019-02-08T13:26:30.439Z,0.88
2019-02-08T13:28:59.691Z,1.07
2019-02-08T13:31:28.958Z,1.00
2019-02-08T13:33:58.210Z,0.85
2019-02-08T13:36:27.416Z,0.70
2019-02-08T13:38:56.661Z,0.80
2019-02-08T13:41:25.858Z,0.90
2019-02-08T13:43:57.134Z,0.70
2019-02-08T13:46:26.383Z,0.50
2019-02-08T13:48:55.726Z,0.95
2019-02-08T13:51:24.926Z,0.82
2019-02-08T13:53:54.182Z,0.90
2019-02-08T13:56:24.352Z,0.80
2019-02-08T13:58:53.770Z,0.80
2019-02-08T14:01:23.047Z,0.70
2019-02-08T14:03:52.370Z,0.60
2019-02-08T14:06:21.827Z,0.88
2019-02-08T14:08:52.068Z,0.80
2019-02-08T14:11:21.344Z,0.75
2019-02-08T14:13:50.591Z,0.78
2019-02-08T14:16:19.862Z,0.75
2019-02-08T14:18:49.118Z,0.60
2019-02-08T14:21:18.326Z,0.90
2019-02-08T14:23:47.590Z,0.80
2019-02-08T14:26:16.858Z,0.90
2019-02-08T14:28:46.171Z,0.68
2019-02-08T14:31:15.582Z,0.90
2019-02-08T14:33:44.876Z,0.82
2019-02-08T14:36:14.198Z,0.80
2019-02-08T14:38:43.592Z,0.70
2019-02-08T14:41:12.895Z,0.60
2019-02-08T14:43:42.170Z,0.98
2019-02-08T14:46:11.417Z,0.95
2019-02-08T14:48:40.764Z,1.00
2019-02-08T14:51:10.988Z,0.80
2019-02-08T14:53:40.588Z,0.85
2019-02-08T14:56:09.850Z,0.80
2019-02-08T14:58:39.134Z,0.90
2019-02-08T15:01:08.384Z,0.98
2019-02-08T15:03:37.657Z,1.10
2019-02-08T15:06:06.932Z,0.90
2019-02-08T15:08:36.283Z,0.82
2019-02-08T15:11:05.553Z,0.80
2019-02-08T15:13:34.822Z,0.70
2019-02-08T15:16:04.086Z,0.80
2019-02-08T15:18:33.364Z,0.72
2019-02-08T15:21:02.623Z,0.78
2019-02-08T15:23:31.894Z,0.72
2019-02-08T15:26:01.073Z,0.60
2019-02-08T15:28:30.346Z,1.02
2019-02-08T15:30:59.605Z,0.65
2019-02-08T15:33:28.875Z,0.85
2019-02-08T15:35:58.062Z,0.70
2019-02-08T15:38:27.341Z,0.70
2019-02-08T15:40:56.618Z,0.88
2019-02-08T15:43:25.890Z,0.70
2019-02-08T15:45:57.687Z,0.78
2019-02-08T15:48:26.962Z,0.65
2019-02-08T15:50:56.223Z,0.60
2019-02-08T15:53:25.490Z,0.80
2019-02-08T15:56:04.846Z,0.70
2019-02-08T15:58:34.050Z,0.80
2019-02-08T16:01:06.918Z,0.82
2019-02-08T16:03:36.126Z,0.53
2019-02-08T16:06:05.303Z,0.70
2019-02-08T16:08:34.574Z,0.82
2019-02-08T16:11:03.895Z,0.68
2019-02-08T16:13:33.222Z,1.07
2019-02-08T16:16:02.529Z,1.12
2019-02-08T16:18:32.881Z,0.90
2019-02-08T16:21:02.299Z,1.25
2019-02-08T16:23:33.264Z,0.80
2019-02-08T16:26:02.515Z,0.90
2019-02-08T16:28:31.835Z,0.93
2019-02-08T16:31:01.382Z,0.78
2019-02-08T16:33:30.798Z,1.10
2019-02-08T16:36:00.122Z,0.90
2019-02-08T16:38:29.426Z,26.93
2019-02-08T16:40:58.775Z,16.00
2019-02-08T16:43:28.114Z,11.95
2019-02-08T16:45:57.485Z,10.85
2019-02-08T16:48:26.761Z,9.73
2019-02-08T16:50:55.950Z,9.63
2019-02-08T16:53:25.258Z,7.90
2019-02-08T16:55:54.518Z,6.85
2019-02-08T16:58:23.722Z,5.28
2019-02-08T17:00:52.994Z,5.12
2019-02-08T17:03:22.279Z,4.67
2019-02-08T17:05:51.538Z,5.20
2019-02-08T17:08:20.819Z,5.85
2019-02-08T17:10:50.078Z,5.15
2019-02-08T17:13:19.366Z,5.33
2019-02-08T17:15:48.625Z,4.95
2019-02-08T17:18:17.906Z,5.00
2019-02-08T17:20:48.925Z,4.75
2019-02-08T17:23:22.976Z,4.85
2019-02-08T17:25:52.917Z,4.28
2019-02-08T17:28:22.198Z,4.83
2019-02-08T17:30:51.537Z,4.20
2019-02-08T17:33:20.770Z,4.40
2019-02-08T17:35:50.056Z,4.92
2019-02-08T17:38:19.309Z,4.25
2019-02-08T17:40:49.277Z,4.00
2019-02-08T17:43:18.470Z,4.50
2019-02-08T17:45:47.890Z,4.10
2019-02-08T17:48:17.160Z,3.80
2019-02-08T17:50:46.444Z,3.80
2019-02-08T17:53:15.726Z,3.98
2019-02-08T17:55:45.014Z,3.92
2019-02-08T17:58:14.269Z,3.72
2019-02-08T18:00:49.372Z,3.33
2019-02-08T18:03:18.647Z,3.87
2019-02-08T18:05:47.977Z,3.60
2019-02-08T18:08:17.302Z,3.80
2019-02-08T18:10:46.582Z,3.80
2019-02-08T18:13:17.685Z,3.45
2019-02-08T18:15:47.036Z,3.90
2019-02-08T18:18:17.527Z,3.22
2019-02-08T18:20:52.602Z,3.83
2019-02-08T18:23:21.884Z,3.62
2019-02-08T18:25:51.167Z,3.00
2019-02-08T18:28:20.414Z,3.40
2019-02-08T18:30:49.710Z,3.40
2019-02-08T18:33:19.078Z,2.92
2019-02-08T18:35:48.347Z,3.40
2019-02-08T18:38:17.603Z,3.20
2019-02-08T18:40:46.876Z,3.25
2019-02-08T18:43:16.126Z,3.65
2019-02-08T18:45:45.527Z,3.35
2019-02-08T18:48:14.774Z,2.72
2019-02-08T18:50:52.387Z,2.95
2019-02-08T18:53:21.622Z,3.10
2019-02-08T18:55:50.893Z,3.20
2019-02-08T18:58:20.146Z,3.20
2019-02-08T19:00:52.334Z,2.90
2019-02-08T19:03:22.814Z,2.60
2019-02-08T19:05:52.094Z,2.55
2019-02-08T19:08:21.346Z,2.90
2019-02-08T19:13:20.182Z,2.67
2019-02-08T19:15:49.466Z,2.70
2019-02-08T19:18:18.652Z,2.58
2019-02-08T19:20:47.933Z,3.17
2019-02-08T19:23:17.170Z,2.70
2019-02-08T19:25:46.623Z,3.10
2019-02-08T19:28:15.867Z,2.95
2019-02-08T19:30:45.338Z,2.90
2019-02-08T19:33:14.594Z,2.67
2019-02-08T19:35:43.864Z,2.35
2019-02-08T19:38:13.146Z,2.52
2019-02-08T19:40:44.769Z,2.87
2019-02-08T19:43:14.032Z,2.40
2019-02-08T19:45:43.373Z,2.47
2019-02-08T19:48:12.637Z,2.45
2019-02-08T19:50:44.714Z,2.50
2019-02-08T19:53:13.961Z,2.30
2019-02-08T19:55:43.240Z,2.40
2019-02-08T19:58:12.490Z,2.40
2019-02-08T20:00:44.166Z,2.15
2019-02-08T20:03:13.424Z,2.65
2019-02-08T20:05:42.703Z,2.00
2019-02-08T20:08:13.298Z,2.25
2019-02-08T20:10:44.965Z,2.40
2019-02-08T20:13:14.278Z,2.10
2019-02-08T20:15:43.505Z,2.33
2019-02-08T20:18:14.472Z,2.47
2019-02-08T20:20:43.742Z,2.50
2019-02-08T20:23:12.994Z,2.30
2019-02-08T20:25:42.198Z,2.40
2019-02-08T20:28:11.450Z,2.30
2019-02-08T20:30:40.730Z,2.55
2019-02-08T20:33:09.906Z,2.47
2019-02-08T20:35:39.193Z,2.37
2019-02-08T20:38:08.451Z,2.58
2019-02-08T20:40:40.978Z,2.47
2019-02-08T20:43:10.233Z,2.50
2019-02-08T20:45:39.534Z,2.02
2019-02-08T20:48:16.935Z,2.42
2019-02-08T20:50:46.206Z,2.33
2019-02-08T20:53:15.381Z,2.30
2019-02-08T20:55:44.594Z,2.30
2019-02-08T20:58:13.914Z,2.02
2019-02-08T21:00:46.449Z,2.00
2019-02-08T21:03:16.104Z,2.05
2019-02-08T21:05:45.354Z,2.20
2019-02-08T21:08:14.699Z,2.20
2019-02-08T21:10:43.956Z,2.10
2019-02-08T21:13:14.222Z,2.10
2019-02-08T21:15:43.478Z,1.80
2019-02-08T21:18:12.819Z,1.80
2019-02-08T21:20:42.149Z,1.98
2019-02-08T21:23:12.490Z,2.15
2019-02-08T21:25:42.408Z,1.77
2019-02-08T21:28:11.676Z,1.92
2019-02-08T21:30:40.922Z,2.20
2019-02-08T21:33:11.178Z,2.10
2019-02-08T21:35:40.462Z,1.95
2019-02-08T21:38:09.919Z,1.95
2019-02-08T21:40:39.182Z,2.00
2019-02-08T21:43:08.455Z,1.90
2019-02-08T21:45:42.836Z,1.85
2019-02-08T21:48:13.009Z,2.17
2019-02-08T21:50:42.256Z,2.00
2019-02-08T21:53:11.740Z,2.12
2019-02-08T21:55:41.055Z,1.75
2019-02-08T21:58:10.326Z,2.00
2019-02-08T22:00:41.580Z,2.08
2019-02-08T22:03:11.080Z,1.90
2019-02-08T22:05:43.221Z,2.00
2019-02-08T22:08:12.644Z,2.20
2019-02-08T22:10:41.909Z,2.30
2019-02-08T22:13:11.451Z,2.10
2019-02-08T22:15:43.659Z,2.20
2019-02-08T22:18:13.067Z,2.10
2019-02-08T22:20:42.486Z,2.10
2019-02-08T22:23:11.799Z,1.87
2019-02-08T22:25:41.292Z,2.27
2019-02-08T22:28:11.707Z,1.72
2019-02-08T22:30:41.039Z,2.00
2019-02-08T22:33:11.162Z,2.08
2019-02-08T22:35:40.568Z,2.00
2019-02-08T22:38:10.161Z,2.30
2019-02-08T22:40:39.678Z,1.98
2019-02-08T22:43:09.047Z,1.85
2019-02-08T22:45:40.250Z,1.80
2019-02-08T22:48:09.534Z,1.82
2019-02-08T22:53:17.195Z,1.87
2019-02-08T22:55:46.498Z,1.95
2019-02-08T22:58:15.786Z,2.00
2019-02-08T23:00:55.079Z,2.00
2019-02-08T23:03:24.546Z,1.70
2019-02-08T23:05:53.790Z,1.98
2019-02-08T23:08:23.062Z,2.00
2019-02-08T23:10:52.314Z,2.00
2019-02-08T23:13:21.610Z,1.40
2019-02-08T23:15:50.864Z,1.80
2019-02-08T23:18:20.135Z,1.65
2019-02-08T23:20:49.486Z,1.80
2019-02-08T23:23:18.758Z,1.87
2019-02-08T23:25:48.015Z,1.52
2019-02-08T23:28:17.285Z,1.82
2019-02-08T23:30:47.605Z,1.80
2019-02-08T23:33:16.818Z,1.60
2019-02-08T23:35:46.070Z,1.82
2019-02-08T23:38:15.322Z,1.77
2019-02-08T23:40:44.603Z,1.72
2019-02-08T23:43:13.850Z,1.90
2019-02-08T23:45:43.047Z,1.42
2019-02-08T23:48:12.304Z,1.60
2019-02-08T23:50:41.582Z,1.57
2019-02-08T23:53:10.759Z,1.50
2019-02-08T23:55:40.034Z,1.90
2019-02-08T23:58:09.286Z,1.50
